Time;durP1;ratioP1;P1;durP2;ratioP2;P2;SDS_P1;SDS_P2;PMS_P1;PMS_P2;Temp;Humidity;BMP_temperature;BMP_pressure;BME280_temperature;BME280_humidity;BME280_pressure;Samples;Min_cycle;Max_cycle;Signal;HPM_P1;HPM_P2
2022/12/31 00:00:30;;;;;;;16.48;3.60;;;;;;;;;;5031084;28;20056;-73
2022/12/31 00:02:56;;;;;;;11.73;3.10;;;;;;;;;;5014460;28;20072;-73
2022/12/31 00:05:22;;;;;;;13.05;3.55;;;;;;;;;;5030943;28;20084;-73
2022/12/31 00:07:49;;;;;;;10.20;3.10;;;;;;;;;;5030886;28;20049;-73
2022/12/31 00:10:15;;;;;;;11.35;3.33;;;;;;;;;;5031104;28;20053;-73
2022/12/31 00:12:41;;;;;;;8.57;3.08;;;;;;;;;;5032407;28;20049;-73
2022/12/31 00:15:07;;;;;;;10.65;3.42;;;;;;;;;;5032041;28;20041;-73
2022/12/31 00:17:33;;;;;;;12.73;3.30;;;;;;;;;;5037045;28;20413;-73
2022/12/31 00:19:59;;;;;;;12.77;3.75;;;;;;;;;;5050322;28;20055;-73
2022/12/31 00:22:25;;;;;;;11.40;3.40;;;;;;;;;;5051931;28;20554;-73
2022/12/31 00:24:51;;;;;;;13.38;3.75;;;;;;;;;;5052140;28;20048;-73
2022/12/31 00:27:17;;;;;;;10.10;3.42;;;;;;;;;;5052200;28;20044;-73
2022/12/31 00:29:43;;;;;;;12.15;3.58;;;;;;;;;;5055772;28;20041;-74
2022/12/31 00:32:09;;;;;;;12.38;3.67;;;;;;;;;;5055478;28;20049;-74
2022/12/31 00:34:35;;;;;;;17.67;4.07;;;;;;;;;;5055170;28;20037;-73
2022/12/31 00:37:01;;;;;;;18.42;4.47;;;;;;;;;;5055617;28;20051;-73
2022/12/31 00:39:27;;;;;;;16.98;3.85;;;;;;;;;;5055612;28;20459;-73
2022/12/31 00:41:53;;;;;;;14.98;3.70;;;;;;;;;;5055248;28;20136;-74
2022/12/31 00:44:19;;;;;;;15.27;3.78;;;;;;;;;;5055567;28;20057;-74
2022/12/31 00:46:45;;;;;;;16.88;4.10;;;;;;;;;;5054232;28;20048;-74
2022/12/31 00:49:11;;;;;;;18.00;4.45;;;;;;;;;;5053128;28;20052;-74
2022/12/31 00:51:37;;;;;;;13.63;3.80;;;;;;;;;;5054187;28;20124;-73
2022/12/31 00:54:03;;;;;;;16.73;3.70;;;;;;;;;;5055332;28;20138;-73
2022/12/31 00:56:30;;;;;;;21.55;4.60;;;;;;;;;;5053938;28;20044;-73
2022/12/31 00:58:56;;;;;;;15.82;4.30;;;;;;;;;;5053989;28;20524;-74
2022/12/31 01:01:23;;;;;;;22.20;5.18;;;;;;;;;;5037055;28;20056;-73
2022/12/31 01:03:51;;;;;;;13.80;4.85;;;;;;;;;;5054961;28;20102;-73
2022/12/31 01:06:17;;;;;;;15.48;3.92;;;;;;;;;;5053574;28;20460;-74
2022/12/31 01:08:43;;;;;;;19.33;4.30;;;;;;;;;;5053235;28;20458;-73
2022/12/31 01:11:27;;;;;;;19.88;4.38;;;;;;;;;;5051686;28;20489;-74
2022/12/31 01:13:55;;;;;;;22.48;4.00;;;;;;;;;;5053544;28;20409;-74
2022/12/31 01:16:23;;;;;;;19.42;4.55;;;;;;;;;;5054697;28;20041;-73
2022/12/31 01:18:49;;;;;;;18.30;4.50;;;;;;;;;;5053062;28;20505;-73
2022/12/31 01:21:15;;;;;;;15.30;3.72;;;;;;;;;;5054675;28;20041;-73
2022/12/31 01:23:42;;;;;;;18.50;4.00;;;;;;;;;;5054652;28;20102;-73
2022/12/31 01:26:09;;;;;;;21.35;4.28;;;;;;;;;;5053687;28;20124;-73
2022/12/31 01:28:35;;;;;;;19.02;4.75;;;;;;;;;;5054422;28;20045;-73
2022/12/31 01:31:06;;;;;;;18.58;4.22;;;;;;;;;;5054169;28;20113;-73
2022/12/31 01:33:32;;;;;;;16.67;4.32;;;;;;;;;;5053514;28;20527;-74
2022/12/31 01:36:17;;;;;;;20.00;4.03;;;;;;;;;;5054606;28;20378;-74
2022/12/31 01:38:44;;;;;;;17.75;4.70;;;;;;;;;;5052887;28;20041;-74
2022/12/31 01:41:11;;;;;;;19.08;4.88;;;;;;;;;;5050809;28;20076;-73
2022/12/31 01:43:54;;;;;;;16.60;4.50;;;;;;;;;;5052820;28;20047;-74
2022/12/31 01:46:29;;;;;;;14.80;4.07;;;;;;;;;;5054336;28;20056;-73
2022/12/31 01:48:57;;;;;;;14.50;4.00;;;;;;;;;;5054149;28;20045;-74
2022/12/31 01:51:25;;;;;;;15.55;4.20;;;;;;;;;;5053250;28;20063;-74
2022/12/31 01:53:51;;;;;;;16.35;3.92;;;;;;;;;;5052846;28;20048;-73
2022/12/31 01:56:17;;;;;;;14.60;3.85;;;;;;;;;;5053920;28;20048;-74
2022/12/31 01:58:45;;;;;;;23.58;4.57;;;;;;;;;;5054209;28;20049;-73
2022/12/31 02:01:14;;;;;;;14.40;4.00;;;;;;;;;;5052584;28;20044;-73
2022/12/31 02:03:40;;;;;;;14.27;4.07;;;;;;;;;;5054065;28;20084;-73
2022/12/31 02:06:10;;;;;;;12.68;4.05;;;;;;;;;;5052210;28;20044;-74
2022/12/31 02:08:37;;;;;;;12.45;4.40;;;;;;;;;;5052491;28;20140;-73
2022/12/31 02:11:18;;;;;;;13.82;4.55;;;;;;;;;;5050537;28;20041;-73
2022/12/31 02:13:44;;;;;;;15.65;4.90;;;;;;;;;;5053893;28;20048;-73
2022/12/31 02:16:17;;;;;;;10.70;4.43;;;;;;;;;;5052486;28;20440;-73
2022/12/31 02:18:49;;;;;;;10.63;4.18;;;;;;;;;;5038491;28;20490;-73
2022/12/31 02:21:34;;;;;;;15.23;4.90;;;;;;;;;;5033456;28;20049;-73
2022/12/31 02:24:18;;;;;;;9.95;4.50;;;;;;;;;;5033745;28;20059;-73
2022/12/31 02:26:59;;;;;;;12.38;4.47;;;;;;;;;;5033587;28;20076;-73
2022/12/31 02:29:25;;;;;;;10.38;3.97;;;;;;;;;;5015623;28;20103;-73
2022/12/31 02:32:21;;;;;;;12.85;4.50;;;;;;;;;;5032160;28;20045;-73
2022/12/31 02:34:50;;;;;;;8.25;4.13;;;;;;;;;;5024742;28;20049;-73
2022/12/31 02:37:17;;;;;;;12.40;3.80;;;;;;;;;;5031904;28;20041;-73
2022/12/31 02:39:44;;;;;;;10.27;4.18;;;;;;;;;;5032194;28;20497;-73
2022/12/31 02:42:10;;;;;;;12.50;4.57;;;;;;;;;;5033115;28;20048;-73
2022/12/31 02:44:37;;;;;;;11.90;4.03;;;;;;;;;;5015381;28;20103;-74
2022/12/31 02:47:11;;;;;;;12.93;4.30;;;;;;;;;;5033200;28;20051;-73
2022/12/31 02:49:37;;;;;;;9.60;3.67;;;;;;;;;;5032604;28;20120;-74
2022/12/31 02:52:22;;;;;;;10.63;3.83;;;;;;;;;;5031650;28;20530;-73
2022/12/31 02:54:48;;;;;;;10.40;3.75;;;;;;;;;;5031817;28;20493;-73
2022/12/31 02:57:20;;;;;;;11.02;3.80;;;;;;;;;;5032920;28;20045;-73
2022/12/31 03:02:34;;;;;;;9.45;3.42;;;;;;;;;;5031807;28;20096;-73
2022/12/31 03:05:02;;;;;;;6.82;2.90;;;;;;;;;;5033000;28;20045;-73
2022/12/31 03:07:30;;;;;;;7.22;2.85;;;;;;;;;;5032671;28;20067;-73
2022/12/31 03:09:57;;;;;;;7.60;2.60;;;;;;;;;;5031203;28;20482;-73
2022/12/31 03:15:18;;;;;;;;;;;;;;;;;;5033099;28;20063;-73
2022/12/31 03:17:55;;;;;;;8.50;2.67;;;;;;;;;;5032536;28;20020;-73
2022/12/31 03:23:07;;;;;;;;;;;;;;;;;;5032506;28;20506;-73
2022/12/31 03:25:39;;;;;;;7.25;2.47;;;;;;;;;;5030632;28;20368;-73
2022/12/31 03:28:07;;;;;;;7.18;2.30;;;;;;;;;;5029456;28;20049;-73
2022/12/31 03:30:34;;;;;;;7.70;2.75;;;;;;;;;;5030418;28;20394;-73
2022/12/31 03:33:00;;;;;;;7.03;2.67;;;;;;;;;;5029379;28;20045;-73
2022/12/31 03:35:27;;;;;;;7.07;2.40;;;;;;;;;;5032583;28;20041;-73
2022/12/31 03:37:53;;;;;;;8.05;2.40;;;;;;;;;;5032641;28;20104;-73
2022/12/31 03:40:20;;;;;;;5.80;2.10;;;;;;;;;;5031408;28;20579;-74
2022/12/31 03:42:46;;;;;;;6.22;2.10;;;;;;;;;;5028905;28;20045;-73
2022/12/31 03:45:13;;;;;;;5.30;2.17;;;;;;;;;;5032149;28;20068;-73
2022/12/31 03:47:39;;;;;;;6.65;1.90;;;;;;;;;;5032379;28;20128;-73
2022/12/31 03:50:06;;;;;;;7.00;2.15;;;;;;;;;;5014645;28;20076;-73
2022/12/31 03:52:32;;;;;;;6.70;1.90;;;;;;;;;;5032442;28;20041;-73
2022/12/31 03:54:58;;;;;;;6.88;1.70;;;;;;;;;;5031192;28;20053;-73
2022/12/31 03:57:24;;;;;;;6.03;1.80;;;;;;;;;;5032501;28;20103;-73
2022/12/31 03:59:50;;;;;;;7.30;1.92;;;;;;;;;;5032554;28;20084;-73
2022/12/31 04:02:16;;;;;;;6.97;1.90;;;;;;;;;;5036221;28;20041;-73
2022/12/31 04:04:42;;;;;;;4.07;1.60;;;;;;;;;;5034848;28;20100;-73
2022/12/31 04:07:08;;;;;;;6.68;1.65;;;;;;;;;;5035890;28;20054;-73
2022/12/31 04:09:34;;;;;;;3.65;1.33;;;;;;;;;;5017711;28;20182;-73
2022/12/31 04:12:00;;;;;;;6.82;1.50;;;;;;;;;;5032635;28;20132;-73
2022/12/31 04:14:26;;;;;;;5.57;1.55;;;;;;;;;;5036076;28;20132;-73
2022/12/31 04:16:52;;;;;;;5.25;1.60;;;;;;;;;;5035915;28;20041;-73
2022/12/31 04:19:18;;;;;;;6.97;1.48;;;;;;;;;;5035568;28;20046;-73
2022/12/31 04:21:44;;;;;;;3.95;1.50;;;;;;;;;;5035866;28;20425;-73
2022/12/31 04:24:10;;;;;;;5.22;1.50;;;;;;;;;;5035337;28;20049;-73
2022/12/31 04:26:37;;;;;;;4.78;1.30;;;;;;;;;;5033892;28;20041;-73
2022/12/31 04:29:03;;;;;;;3.70;1.55;;;;;;;;;;5035710;28;20161;-73
2022/12/31 04:31:29;;;;;;;5.38;1.88;;;;;;;;;;5017621;28;20632;-73
2022/12/31 04:33:55;;;;;;;7.60;1.85;;;;;;;;;;5035583;28;20049;-73
2022/12/31 04:36:21;;;;;;;4.60;1.90;;;;;;;;;;5034182;28;20054;-74
2022/12/31 04:38:47;;;;;;;4.82;1.80;;;;;;;;;;5034334;28;20100;-73
2022/12/31 04:41:16;;;;;;;3.53;1.70;;;;;;;;;;5035356;28;20058;-73
2022/12/31 04:43:43;;;;;;;5.50;2.20;;;;;;;;;;5035625;28;20050;-73
2022/12/31 04:46:09;;;;;;;9.13;2.63;;;;;;;;;;5035400;28;20060;-73
2022/12/31 04:48:35;;;;;;;5.03;2.03;;;;;;;;;;5035185;28;20091;-73
2022/12/31 04:51:01;;;;;;;6.85;2.15;;;;;;;;;;5034096;28;20045;-73
2022/12/31 04:53:27;;;;;;;7.25;2.47;;;;;;;;;;5034072;28;20053;-73
2022/12/31 04:55:53;;;;;;;6.20;2.33;;;;;;;;;;5035440;28;20379;-73
2022/12/31 04:58:19;;;;;;;6.20;1.90;;;;;;;;;;5034025;28;20128;-73
2022/12/31 05:00:48;;;;;;;6.05;2.28;;;;;;;;;;5033709;28;20053;-73
2022/12/31 05:03:14;;;;;;;7.35;2.30;;;;;;;;;;5017543;28;20125;-73
2022/12/31 05:05:44;;;;;;;6.85;2.08;;;;;;;;;;5033518;28;20091;-73
2022/12/31 05:08:10;;;;;;;7.10;2.35;;;;;;;;;;5033779;28;20060;-73
2022/12/31 05:10:37;;;;;;;7.45;2.67;;;;;;;;;;5016967;28;20046;-74
2022/12/31 05:13:03;;;;;;;5.60;2.10;;;;;;;;;;5034245;28;20494;-74
2022/12/31 05:15:29;;;;;;;5.95;2.30;;;;;;;;;;5035111;28;20052;-74
2022/12/31 05:17:54;;;;;;;7.70;2.40;;;;;;;;;;5033333;28;20052;-73
2022/12/31 05:20:20;;;;;;;5.25;2.20;;;;;;;;;;5033427;28;20048;-73
2022/12/31 05:22:46;;;;;;;7.32;2.88;;;;;;;;;;5034888;28;20056;-73
2022/12/31 05:25:12;;;;;;;6.53;2.33;;;;;;;;;;5033411;28;20053;-73
2022/12/31 05:27:39;;;;;;;7.13;2.50;;;;;;;;;;5032391;28;20441;-73
2022/12/31 05:30:05;;;;;;;8.27;2.80;;;;;;;;;;5033611;28;20096;-75
2022/12/31 05:32:32;;;;;;;5.93;2.25;;;;;;;;;;5034476;28;20053;-74
2022/12/31 05:34:58;;;;;;;7.18;2.53;;;;;;;;;;5034679;28;20050;-73
2022/12/31 05:37:25;;;;;;;7.15;2.28;;;;;;;;;;5032935;28;20050;-73
2022/12/31 05:39:51;;;;;;;5.38;2.40;;;;;;;;;;5034573;28;20069;-74
2022/12/31 05:42:17;;;;;;;6.35;2.40;;;;;;;;;;5033399;28;20490;-74
2022/12/31 05:44:43;;;;;;;7.78;2.33;;;;;;;;;;5034225;28;20120;-74
2022/12/31 05:47:09;;;;;;;6.47;2.50;;;;;;;;;;5032989;28;20057;-73
2022/12/31 05:49:35;;;;;;;7.95;2.47;;;;;;;;;;5032219;28;20045;-73
2022/12/31 05:52:01;;;;;;;8.27;2.60;;;;;;;;;;5015019;28;20050;-74
2022/12/31 05:54:27;;;;;;;7.45;2.05;;;;;;;;;;5033019;28;20460;-73
2022/12/31 05:56:53;;;;;;;7.60;2.20;;;;;;;;;;5016396;28;20045;-73
2022/12/31 05:59:19;;;;;;;7.38;2.28;;;;;;;;;;5033981;28;20045;-73
2022/12/31 06:01:45;;;;;;;6.57;2.00;;;;;;;;;;5033794;28;20422;-73
2022/12/31 06:04:11;;;;;;;5.68;2.00;;;;;;;;;;5016404;28;20073;-73
2022/12/31 06:06:37;;;;;;;8.60;2.30;;;;;;;;;;5032383;28;20049;-73
2022/12/31 06:09:03;;;;;;;5.13;2.10;;;;;;;;;;5032501;28;20058;-73
2022/12/31 06:11:29;;;;;;;8.20;2.10;;;;;;;;;;5033562;28;20486;-73
2022/12/31 06:13:57;;;;;;;3.60;1.58;;;;;;;;;;5031271;28;20037;-74
2022/12/31 06:16:23;;;;;;;8.00;2.15;;;;;;;;;;5032511;28;20041;-73
2022/12/31 06:18:49;;;;;;;6.07;2.03;;;;;;;;;;5032129;28;20060;-73
2022/12/31 06:21:16;;;;;;;5.80;2.00;;;;;;;;;;5032541;28;20124;-73
2022/12/31 06:23:42;;;;;;;6.88;1.80;;;;;;;;;;5032890;28;20049;-73
2022/12/31 06:26:08;;;;;;;7.78;2.17;;;;;;;;;;5032279;28;20045;-73
2022/12/31 06:28:35;;;;;;;6.30;1.98;;;;;;;;;;5033458;28;20041;-73
2022/12/31 06:31:02;;;;;;;4.85;1.83;;;;;;;;;;5032431;28;20045;-73
2022/12/31 06:33:28;;;;;;;3.28;1.50;;;;;;;;;;5033536;28;20072;-74
2022/12/31 06:35:58;;;;;;;4.75;1.60;;;;;;;;;;5032053;28;20103;-74
2022/12/31 06:38:24;;;;;;;3.47;1.50;;;;;;;;;;5031999;28;20052;-73
2022/12/31 06:40:51;;;;;;;2.90;1.40;;;;;;;;;;5033110;28;20394;-73
2022/12/31 06:43:17;;;;;;;3.83;1.40;;;;;;;;;;5033310;28;20038;-74
2022/12/31 06:45:43;;;;;;;4.80;1.33;;;;;;;;;;5033253;28;20045;-74
2022/12/31 06:48:09;;;;;;;2.22;1.10;;;;;;;;;;5015282;28;20124;-73
2022/12/31 06:50:35;;;;;;;3.38;1.35;;;;;;;;;;5033159;28;20133;-74
2022/12/31 06:53:01;;;;;;;5.43;1.63;;;;;;;;;;5031707;28;20056;-74
2022/12/31 06:55:27;;;;;;;3.00;1.40;;;;;;;;;;5033195;28;20112;-74
2022/12/31 06:57:53;;;;;;;5.15;1.73;;;;;;;;;;5033109;28;20049;-74
2022/12/31 07:00:20;;;;;;;5.78;1.50;;;;;;;;;;5032773;28;20077;-73
2022/12/31 07:02:46;;;;;;;4.82;1.50;;;;;;;;;;5032885;28;20053;-73
2022/12/31 07:05:21;;;;;;;6.93;2.00;;;;;;;;;;5032879;28;20107;-73
2022/12/31 07:08:06;;;;;;;5.43;2.10;;;;;;;;;;5032977;28;20041;-73
2022/12/31 07:10:38;;;;;;;4.07;2.50;;;;;;;;;;5030986;28;20048;-74
2022/12/31 07:13:23;;;;;;;6.25;3.10;;;;;;;;;;5031556;28;20045;-73
2022/12/31 07:16:00;;;;;;;6.63;3.40;;;;;;;;;;5032665;28;20104;-74
2022/12/31 07:18:45;;;;;;;5.30;3.75;;;;;;;;;;5031245;28;20052;-74
2022/12/31 07:21:12;;;;;;;6.15;3.97;;;;;;;;;;5032410;28;20053;-73
2022/12/31 07:23:38;;;;;;;4.95;3.78;;;;;;;;;;5031634;28;20128;-73
2022/12/31 07:26:08;;;;;;;5.55;3.88;;;;;;;;;;5032414;28;20046;-73
2022/12/31 07:29:00;;;;;;;6.85;3.88;;;;;;;;;;5029506;28;20103;-74
2022/12/31 07:31:45;;;;;;;5.28;3.58;;;;;;;;;;5032592;28;20120;-73
2022/12/31 07:34:14;;;;;;;4.95;3.80;;;;;;;;;;5032704;28;20045;-73
2022/12/31 07:36:50;;;;;;;5.13;3.55;;;;;;;;;;5035759;28;20441;-74
2022/12/31 07:39:20;;;;;;;5.20;3.22;;;;;;;;;;5035460;28;20045;-74
2022/12/31 07:41:49;;;;;;;4.75;3.20;;;;;;;;;;5036627;28;20048;-74
2022/12/31 07:44:48;;;;;;;4.43;2.90;;;;;;;;;;5035444;28;20084;-74
2022/12/31 07:47:20;;;;;;;5.15;3.05;;;;;;;;;;5024584;28;20573;-73
2022/12/31 07:49:46;;;;;;;4.97;2.95;;;;;;;;;;5036549;28;20038;-74
2022/12/31 07:52:12;;;;;;;7.47;3.50;;;;;;;;;;5034718;28;20053;-74
2022/12/31 07:54:38;;;;;;;3.88;2.95;;;;;;;;;;5035270;28;20088;-74
2022/12/31 07:57:04;;;;;;;6.13;3.33;;;;;;;;;;5032956;28;20077;-73
2022/12/31 07:59:40;;;;;;;4.25;2.88;;;;;;;;;;5035080;28;20169;-74
2022/12/31 08:02:13;;;;;;;5.28;3.33;;;;;;;;;;5034834;28;20049;-74
2022/12/31 08:04:44;;;;;;;6.10;2.90;;;;;;;;;;5036310;28;20104;-74
2022/12/31 08:07:13;;;;;;;3.83;2.85;;;;;;;;;;5035979;28;20058;-74
2022/12/31 08:09:46;;;;;;;5.97;3.50;;;;;;;;;;5018568;28;20060;-74
2022/12/31 08:12:14;;;;;;;4.68;3.20;;;;;;;;;;5035882;28;20045;-74
2022/12/31 08:14:43;;;;;;;4.50;3.40;;;;;;;;;;5035999;28;20046;-74
2022/12/31 08:17:13;;;;;;;5.63;3.40;;;;;;;;;;5037306;28;20053;-73
2022/12/31 08:19:39;;;;;;;4.75;3.42;;;;;;;;;;5054573;28;20045;-74
2022/12/31 08:22:08;;;;;;;5.07;3.50;;;;;;;;;;5055534;28;20045;-74
2022/12/31 08:24:34;;;;;;;4.35;3.40;;;;;;;;;;5055854;28;20448;-73
2022/12/31 08:27:06;;;;;;;4.95;3.50;;;;;;;;;;5055341;28;20041;-74
2022/12/31 08:29:32;;;;;;;4.35;3.13;;;;;;;;;;5054458;28;20049;-73
2022/12/31 08:31:58;;;;;;;3.40;2.40;;;;;;;;;;5055357;28;20057;-74
2022/12/31 08:34:43;;;;;;;3.85;2.65;;;;;;;;;;5055190;28;20094;-73
2022/12/31 08:37:14;;;;;;;3.47;2.30;;;;;;;;;;5053770;28;20056;-74
2022/12/31 08:39:47;;;;;;;3.03;2.03;;;;;;;;;;5055340;28;20041;-74
2022/12/31 08:42:25;;;;;;;4.03;2.17;;;;;;;;;;5037311;28;20049;-74
2022/12/31 08:45:05;;;;;;;2.72;2.13;;;;;;;;;;5037577;28;20040;-73
2022/12/31 08:47:50;;;;;;;3.20;1.88;;;;;;;;;;5054283;28;20135;-74
2022/12/31 08:50:17;;;;;;;2.90;1.73;;;;;;;;;;5052800;28;20053;-74
2022/12/31 08:52:44;;;;;;;3.25;2.00;;;;;;;;;;5051868;28;20087;-73
2022/12/31 08:55:14;;;;;;;2.70;1.90;;;;;;;;;;5054199;28;20455;-73
2022/12/31 08:57:52;;;;;;;3.20;2.50;;;;;;;;;;5055348;28;20040;-73
2022/12/31 09:00:18;;;;;;;4.07;2.60;;;;;;;;;;5053766;28;20125;-74
2022/12/31 09:02:54;;;;;;;3.05;2.40;;;;;;;;;;5053705;28;20164;-74
2022/12/31 09:05:32;;;;;;;3.00;2.45;;;;;;;;;;5055190;28;20390;-73
2022/12/31 09:08:03;;;;;;;3.30;2.55;;;;;;;;;;5054787;28;20064;-74
2022/12/31 09:10:31;;;;;;;3.38;2.40;;;;;;;;;;5053429;28;20053;-74
2022/12/31 09:13:16;;;;;;;3.47;2.70;;;;;;;;;;5054897;28;20116;-74
2022/12/31 09:15:47;;;;;;;3.45;2.72;;;;;;;;;;5055025;28;20123;-74
2022/12/31 09:18:13;;;;;;;3.60;3.03;;;;;;;;;;5042708;28;20052;-73
2022/12/31 09:20:40;;;;;;;3.65;2.80;;;;;;;;;;5034707;28;20045;-73
2022/12/31 09:23:06;;;;;;;4.00;3.13;;;;;;;;;;5017248;28;20068;-74
2022/12/31 09:25:32;;;;;;;4.60;3.10;;;;;;;;;;5034698;28;20041;-73
2022/12/31 09:28:10;;;;;;;4.95;3.20;;;;;;;;;;5034611;28;20084;-73
2022/12/31 09:30:45;;;;;;;4.75;2.72;;;;;;;;;;5034041;28;20041;-73
2022/12/31 09:33:31;;;;;;;5.72;3.25;;;;;;;;;;5034680;28;20049;-73
2022/12/31 09:35:59;;;;;;;4.72;2.95;;;;;;;;;;5026203;28;20053;-73
2022/12/31 09:38:28;;;;;;;3.95;2.58;;;;;;;;;;5033282;28;20045;-73
2022/12/31 09:41:13;;;;;;;4.28;2.30;;;;;;;;;;5034246;28;20041;-73
2022/12/31 09:43:57;;;;;;;5.05;2.20;;;;;;;;;;5016606;28;20041;-73
2022/12/31 09:46:42;;;;;;;4.60;2.08;;;;;;;;;;5034401;28;20544;-73
2022/12/31 09:49:28;;;;;;;4.15;2.35;;;;;;;;;;5034499;28;20045;-73
2022/12/31 09:52:13;;;;;;;4.15;2.15;;;;;;;;;;5012584;28;20058;-73
2022/12/31 09:54:49;;;;;;;4.68;2.00;;;;;;;;;;5034084;28;20044;-73
2022/12/31 09:57:15;;;;;;;3.25;1.83;;;;;;;;;;5033939;28;20045;-73
2022/12/31 09:59:50;;;;;;;4.35;1.88;;;;;;;;;;5032705;28;20152;-73
2022/12/31 10:02:29;;;;;;;2.90;1.38;;;;;;;;;;5032908;28;20045;-73
2022/12/31 10:05:13;;;;;;;5.18;1.73;;;;;;;;;;5034174;28;20049;-73
2022/12/31 10:07:58;;;;;;;3.35;1.88;;;;;;;;;;5033601;28;20076;-73
2022/12/31 10:10:24;;;;;;;3.20;1.60;;;;;;;;;;5032608;28;20053;-73
2022/12/31 10:13:08;;;;;;;5.07;1.55;;;;;;;;;;5033867;28;20042;-73
2022/12/31 10:15:53;;;;;;;5.43;1.52;;;;;;;;;;5032479;28;20494;-73
2022/12/31 10:18:38;;;;;;;2.53;1.40;;;;;;;;;;5043529;28;20044;-73
2022/12/31 10:21:26;;;;;;;6.20;1.80;;;;;;;;;;5052070;28;20131;-73
2022/12/31 10:24:17;;;;;;;3.92;1.50;;;;;;;;;;5052076;28;20041;-73
2022/12/31 10:26:49;;;;;;;6.63;1.85;;;;;;;;;;5053357;28;20048;-73
2022/12/31 10:29:45;;;;;;;6.70;1.63;;;;;;;;;;5051891;28;20084;-73
2022/12/31 10:32:19;;;;;;;4.53;2.25;;;;;;;;;;5043600;28;20513;-73
2022/12/31 10:35:12;;;;;;;6.65;1.70;;;;;;;;;;5052198;28;20041;-74
2022/12/31 10:37:56;;;;;;;7.10;1.70;;;;;;;;;;5053499;28;20178;-72
2022/12/31 10:40:28;;;;;;;8.20;1.95;;;;;;;;;;5053316;28;20474;-73
2022/12/31 10:43:03;;;;;;;8.27;1.88;;;;;;;;;;5053248;28;20052;-73
2022/12/31 10:45:41;;;;;;;6.40;1.50;;;;;;;;;;5051224;28;20163;-73
2022/12/31 10:48:26;;;;;;;6.82;1.90;;;;;;;;;;5049806;28;20063;-73
2022/12/31 10:51:04;;;;;;;7.72;1.77;;;;;;;;;;5052296;28;20045;-73
2022/12/31 10:53:36;;;;;;;9.45;2.47;;;;;;;;;;5051746;28;20076;-73
2022/12/31 10:56:21;;;;;;;8.45;1.85;;;;;;;;;;5051502;28;20053;-73
2022/12/31 10:58:56;;;;;;;7.10;1.77;;;;;;;;;;5051516;28;20060;-73
2022/12/31 11:01:32;;;;;;;7.25;2.00;;;;;;;;;;5035025;28;20037;-73
2022/12/31 11:04:17;;;;;;;10.73;2.38;;;;;;;;;;5051582;28;20056;-73
2022/12/31 11:06:57;;;;;;;11.05;2.03;;;;;;;;;;5051420;28;20498;-73
2022/12/31 11:09:23;;;;;;;10.25;2.13;;;;;;;;;;5052547;28;20053;-73
2022/12/31 11:11:49;;;;;;;7.85;1.80;;;;;;;;;;5051113;28;20066;-73
2022/12/31 11:14:24;;;;;;;7.15;2.03;;;;;;;;;;5052594;28;20128;-73
2022/12/31 11:17:03;;;;;;;5.25;1.75;;;;;;;;;;5051233;28;20081;-73
2022/12/31 11:19:38;;;;;;;8.45;2.22;;;;;;;;;;5032593;28;20371;-74
2022/12/31 11:22:23;;;;;;;7.30;2.25;;;;;;;;;;5029098;28;20060;-74
2022/12/31 11:25:07;;;;;;;9.90;2.17;;;;;;;;;;5032413;28;20053;-73
2022/12/31 11:27:33;;;;;;;10.65;2.20;;;;;;;;;;5028958;28;20079;-73
2022/12/31 11:30:05;;;;;;;12.30;2.33;;;;;;;;;;5031137;28;20128;-73
2022/12/31 11:32:50;;;;;;;10.68;2.20;;;;;;;;;;5031664;28;20057;-73
2022/12/31 11:35:40;;;;;;;10.23;1.98;;;;;;;;;;5032757;28;20405;-73
2022/12/31 11:38:29;;;;;;;9.88;2.17;;;;;;;;;;5032382;28;20073;-73
2022/12/31 11:41:12;;;;;;;11.38;1.83;;;;;;;;;;5029150;28;20187;-73
2022/12/31 11:43:56;;;;;;;8.80;1.95;;;;;;;;;;5032523;28;20137;-73
2022/12/31 11:46:40;;;;;;;9.45;2.20;;;;;;;;;;5032136;28;20080;-73
2022/12/31 11:49:17;;;;;;;13.30;2.75;;;;;;;;;;5032415;28;20053;-74
2022/12/31 11:51:49;;;;;;;8.15;2.15;;;;;;;;;;5032272;28;20049;-73
2022/12/31 11:54:42;;;;;;;8.32;2.47;;;;;;;;;;5032239;28;20045;-73
2022/12/31 11:57:16;;;;;;;9.45;2.42;;;;;;;;;;5032163;28;20052;-73
2022/12/31 11:59:42;;;;;;;6.35;2.10;;;;;;;;;;5032100;28;20038;-73
2022/12/31 12:02:20;;;;;;;9.60;2.40;;;;;;;;;;5030887;28;20095;-73
2022/12/31 12:04:48;;;;;;;9.27;2.55;;;;;;;;;;5032403;28;20049;-73
2022/12/31 12:07:15;;;;;;;8.70;2.42;;;;;;;;;;5030728;28;20085;-73
2022/12/31 12:09:42;;;;;;;8.15;2.22;;;;;;;;;;5031031;28;20053;-74
2022/12/31 12:12:08;;;;;;;6.07;2.00;;;;;;;;;;5030941;28;20045;-73
2022/12/31 12:14:41;;;;;;;6.43;1.90;;;;;;;;;;5032286;28;20050;-73
2022/12/31 12:17:09;;;;;;;6.88;1.95;;;;;;;;;;5031869;28;20125;-73
2022/12/31 12:19:40;;;;;;;7.90;2.33;;;;;;;;;;5032071;28;20041;-73
2022/12/31 12:22:11;;;;;;;8.80;2.45;;;;;;;;;;5033900;28;20425;-73
2022/12/31 12:24:37;;;;;;;8.18;2.30;;;;;;;;;;5034782;28;20081;-73
2022/12/31 12:27:03;;;;;;;9.00;2.25;;;;;;;;;;5035723;28;20154;-73
2022/12/31 12:29:33;;;;;;;10.77;2.60;;;;;;;;;;5035128;28;20053;-74
2022/12/31 12:32:00;;;;;;;9.90;2.42;;;;;;;;;;5034147;28;20053;-73
2022/12/31 12:34:30;;;;;;;10.55;2.60;;;;;;;;;;5035788;28;20142;-74
2022/12/31 12:36:57;;;;;;;10.85;2.50;;;;;;;;;;5034322;28;20045;-73
2022/12/31 12:39:25;;;;;;;9.45;2.63;;;;;;;;;;5035587;28;20044;-74
2022/12/31 12:42:09;;;;;;;13.38;3.00;;;;;;;;;;5035518;28;20456;-73
2022/12/31 12:44:35;;;;;;;7.13;2.10;;;;;;;;;;5034294;28;20088;-74
2022/12/31 12:47:06;;;;;;;7.68;2.13;;;;;;;;;;5035320;28;20038;-73
2022/12/31 12:49:37;;;;;;;8.77;2.45;;;;;;;;;;5032683;28;20042;-73
2022/12/31 12:52:03;;;;;;;10.23;2.72;;;;;;;;;;5035238;28;20099;-73
2022/12/31 12:54:32;;;;;;;10.82;2.78;;;;;;;;;;5034028;28;20054;-74
2022/12/31 12:57:00;;;;;;;8.13;2.33;;;;;;;;;;5035134;28;20532;-73
2022/12/31 12:59:38;;;;;;;9.93;2.80;;;;;;;;;;5034927;28;20049;-74
2022/12/31 13:02:19;;;;;;;10.93;2.65;;;;;;;;;;5033422;28;20048;-73
2022/12/31 13:04:55;;;;;;;9.90;2.60;;;;;;;;;;5034966;28;20065;-74
2022/12/31 13:07:40;;;;;;;12.32;2.90;;;;;;;;;;5033404;28;20448;-73
2022/12/31 13:10:23;;;;;;;12.90;3.22;;;;;;;;;;5033674;28;20460;-73
2022/12/31 13:12:56;;;;;;;8.18;2.30;;;;;;;;;;5034603;28;20045;-73
2022/12/31 13:15:41;;;;;;;8.45;2.33;;;;;;;;;;5034535;28;20085;-74
2022/12/31 13:18:15;;;;;;;12.27;2.80;;;;;;;;;;5026509;28;20410;-74
2022/12/31 13:20:43;;;;;;;9.25;2.22;;;;;;;;;;5053115;28;20045;-73
2022/12/31 13:23:22;;;;;;;9.30;2.55;;;;;;;;;;5052944;28;20052;-73
2022/12/31 13:26:07;;;;;;;9.02;2.88;;;;;;;;;;5053263;28;20563;-73
2022/12/31 13:28:35;;;;;;;9.75;2.42;;;;;;;;;;5053122;28;20466;-73
2022/12/31 13:31:03;;;;;;;8.20;2.42;;;;;;;;;;5052986;28;20373;-73
2022/12/31 13:33:34;;;;;;;12.10;2.88;;;;;;;;;;5052414;28;20480;-73
2022/12/31 13:36:02;;;;;;;12.48;2.75;;;;;;;;;;5054334;28;20032;-73
2022/12/31 13:38:37;;;;;;;11.65;2.55;;;;;;;;;;5054268;28;20045;-74
2022/12/31 13:41:13;;;;;;;12.47;2.80;;;;;;;;;;5052994;28;20088;-73
2022/12/31 13:43:45;;;;;;;8.57;2.33;;;;;;;;;;5053920;28;20279;-73
2022/12/31 13:46:14;;;;;;;13.32;2.67;;;;;;;;;;5052605;28;20049;-73
2022/12/31 13:48:44;;;;;;;9.55;2.42;;;;;;;;;;5053737;28;20055;-74
2022/12/31 13:51:10;;;;;;;9.80;2.70;;;;;;;;;;5052291;28;20110;-73
2022/12/31 13:53:38;;;;;;;9.52;2.33;;;;;;;;;;5052680;28;20052;-73
2022/12/31 13:56:06;;;;;;;9.98;2.75;;;;;;;;;;5052332;28;20136;-73
2022/12/31 13:58:32;;;;;;;9.48;2.35;;;;;;;;;;5053607;28;20052;-73
2022/12/31 14:01:01;;;;;;;9.52;2.60;;;;;;;;;;5052501;28;20076;-73
2022/12/31 14:03:36;;;;;;;10.48;2.47;;;;;;;;;;5052243;28;20041;-74
2022/12/31 14:06:21;;;;;;;9.15;2.25;;;;;;;;;;5053230;28;20506;-74
2022/12/31 14:08:47;;;;;;;6.47;2.60;;;;;;;;;;5053285;28;20238;-73
2022/12/31 14:11:20;;;;;;;9.05;2.30;;;;;;;;;;5053248;28;20135;-73
2022/12/31 14:13:46;;;;;;;4.07;1.80;;;;;;;;;;5052528;28;20063;-74
2022/12/31 14:16:15;;;;;;;9.63;2.75;;;;;;;;;;5053806;28;20421;-73
2022/12/31 14:18:46;;;;;;;6.55;1.65;;;;;;;;;;5038969;28;20049;-73
2022/12/31 14:21:22;;;;;;;5.72;1.80;;;;;;;;;;5033107;28;20569;-73
2022/12/31 14:23:58;;;;;;;6.22;1.80;;;;;;;;;;5031787;28;20049;-74
2022/12/31 14:26:26;;;;;;;;;;;;;;;;;;5033742;28;20053;-74
2022/12/31 14:29:10;;;;;;;4.75;2.40;;;;;;;;;;5031742;28;20012;-73
2022/12/31 14:31:56;;;;;;;5.47;2.35;;;;;;;;;;5030942;28;20121;-73
2022/12/31 14:34:33;;;;;;;6.57;2.63;;;;;;;;;;5031744;28;20077;-74
2022/12/31 14:37:18;;;;;;;4.78;1.83;;;;;;;;;;5032092;28;20049;-73
2022/12/31 14:39:53;;;;;;;7.07;1.80;;;;;;;;;;5033202;28;20401;-73
2022/12/31 14:42:29;;;;;;;4.25;1.75;;;;;;;;;;5032927;28;20045;-73
2022/12/31 14:45:14;;;;;;;5.13;1.75;;;;;;;;;;5032078;28;20348;-74
2022/12/31 14:47:46;;;;;;;5.43;1.52;;;;;;;;;;5033130;28;20048;-73
2022/12/31 14:50:15;;;;;;;4.95;1.52;;;;;;;;;;5032899;28;20076;-73
2022/12/31 14:52:47;;;;;;;3.72;1.80;;;;;;;;;;5032658;28;20063;-74
2022/12/31 14:55:13;;;;;;;3.47;1.48;;;;;;;;;;5031765;28;20504;-74
2022/12/31 14:57:40;;;;;;;4.28;1.52;;;;;;;;;;5031642;28;20085;-74
2022/12/31 15:00:21;;;;;;;3.22;1.63;;;;;;;;;;5031872;28;20056;-73
2022/12/31 15:02:52;;;;;;;2.80;1.48;;;;;;;;;;5031348;28;20045;-73
2022/12/31 15:05:22;;;;;;;3.15;1.35;;;;;;;;;;5031082;28;20045;-73
2022/12/31 15:07:48;;;;;;;3.13;1.23;;;;;;;;;;5032309;28;20061;-73
2022/12/31 15:10:40;;;;;;;2.47;1.20;;;;;;;;;;5031047;28;20091;-73
2022/12/31 15:13:25;;;;;;;2.60;1.27;;;;;;;;;;5032606;28;20133;-74